sensor_id;sensor_type;location;lat;lon;timestamp;pressure;altitude;pressure_sealevel;temperature;humidity
13420;BME280;6781;58.440;15.470;2022-12-18T00:00:06;102529.31;;;-1.06;100.00
13420;BME280;6781;58.440;15.470;2022-12-18T00:02:33;102531.88;;;-1.06;100.00
13420;BME280;6781;58.440;15.470;2022-12-18T00:04:59;102520.84;;;-1.07;100.00
13420;BME280;6781;58.440;15.470;2022-12-18T00:07:26;102520.84;;;-1.05;100.00
13420;BME280;6781;58.440;15.470;2022-12-18T00:09:53;102522.53;;;-1.04;100.00
13420;BME280;6781;58.440;15.470;2022-12-18T00:12:20;102509.81;;;-1.06;100.00
13420;BME280;6781;58.440;15.470;2022-12-18T00:14:48;102508.13;;;-1.07;100.00
13420;BME280;6781;58.440;15.470;2022-12-18T00:17:15;102503.03;;;-1.07;100.00
13420;BME280;6781;58.440;15.470;2022-12-18T00:19:41;102493.69;;;-1.09;100.00
13420;BME280;6781;58.440;15.470;2022-12-18T00:22:11;102488.59;;;-1.12;100.00
13420;BME280;6781;58.440;15.470;2022-12-18T00:24:37;102494.53;;;-1.10;100.00
13420;BME280;6781;58.440;15.470;2022-12-18T00:27:04;102482.66;;;-1.11;100.00
13420;BME280;6781;58.440;15.470;2022-12-18T00:29:31;102479.25;;;-1.09;100.00
13420;BME280;6781;58.440;15.470;2022-12-18T00:31:59;102490.28;;;-1.11;100.00
13420;BME280;6781;58.440;15.470;2022-12-18T00:34:25;102486.06;;;-1.11;100.00
13420;BME280;6781;58.440;15.470;2022-12-18T00:36:52;102475.88;;;-1.11;100.00
13420;BME280;6781;58.440;15.470;2022-12-18T00:39:19;102464.84;;;-1.11;100.00
13420;BME280;6781;58.440;15.470;2022-12-18T00:41:46;102466.53;;;-1.13;100.00
13420;BME280;6781;58.440;15.470;2022-12-18T00:44:29;102464.84;;;-1.11;100.00
13420;BME280;6781;58.440;15.470;2022-12-18T00:46:56;102456.34;;;-1.10;100.00
13420;BME280;6781;58.440;15.470;2022-12-18T00:49:25;102466.53;;;-1.07;100.00
13420;BME280;6781;58.440;15.470;2022-12-18T00:51:52;102453.81;;;-1.10;100.00
13420;BME280;6781;58.440;15.470;2022-12-18T00:54:18;102448.72;;;-1.10;100.00
13420;BME280;6781;58.440;15.470;2022-12-18T00:56:45;102432.59;;;-1.12;100.00
13420;BME280;6781;58.440;15.470;2022-12-18T00:59:12;102422.41;;;-1.14;100.00
13420;BME280;6781;58.440;15.470;2022-12-18T01:01:38;102415.63;;;-1.13;100.00
13420;BME280;6781;58.440;15.470;2022-12-18T01:04:05;102413.94;;;-1.14;100.00
13420;BME280;6781;58.440;15.470;2022-12-18T01:06:33;102408.84;;;-1.17;100.00
13420;BME280;6781;58.440;15.470;2022-12-18T01:09:00;102393.56;;;-1.20;100.00
13420;BME280;6781;58.440;15.470;2022-12-18T01:11:27;102374.91;;;-1.22;100.00
13420;BME280;6781;58.440;15.470;2022-12-18T01:13:54;102379.16;;;-1.27;100.00
13420;BME280;6781;58.440;15.470;2022-12-18T01:16:21;102361.34;;;-1.34;100.00
13420;BME280;6781;58.440;15.470;2022-12-18T01:18:50;102351.19;;;-1.40;100.00
13420;BME280;6781;58.440;15.470;2022-12-18T01:21:17;102348.63;;;-1.41;100.00
13420;BME280;6781;58.440;15.470;2022-12-18T01:23:46;102330.84;;;-1.46;100.00
13420;BME280;6781;58.440;15.470;2022-12-18T01:26:13;102323.22;;;-1.47;100.00
13420;BME280;6781;58.440;15.470;2022-12-18T01:28:40;102308.78;;;-1.53;100.00
13420;BME280;6781;58.440;15.470;2022-12-18T01:31:18;102320.66;;;-1.55;100.00
13420;BME280;6781;58.440;15.470;2022-12-18T01:33:45;102319.81;;;-1.58;100.00
13420;BME280;6781;58.440;15.470;2022-12-18T01:36:15;102307.09;;;-1.58;100.00
13420;BME280;6781;58.440;15.470;2022-12-18T01:38:42;102313.88;;;-1.53;100.00
13420;BME280;6781;58.440;15.470;2022-12-18T01:41:10;102303.72;;;-1.59;100.00
13420;BME280;6781;58.440;15.470;2022-12-18T01:43:43;102299.47;;;-1.61;100.00
13420;BME280;6781;58.440;15.470;2022-12-18T01:46:11;102314.75;;;-1.61;100.00
13420;BME280;6781;58.440;15.470;2022-12-18T01:48:38;102306.25;;;-1.57;100.00
13420;BME280;6781;58.440;15.470;2022-12-18T01:51:06;102296.09;;;-1.53;100.00
13420;BME280;6781;58.440;15.470;2022-12-18T01:53:34;102289.28;;;-1.54;100.00
13420;BME280;6781;58.440;15.470;2022-12-18T01:56:02;102305.41;;;-1.46;100.00
13420;BME280;6781;58.440;15.470;2022-12-18T01:58:35;102292.69;;;-1.44;100.00
13420;BME280;6781;58.440;15.470;2022-12-18T02:01:06;102290.97;;;-1.41;100.00
13420;BME280;6781;58.440;15.470;2022-12-18T02:03:32;102297.75;;;-1.40;100.00
13420;BME280;6781;58.440;15.470;2022-12-18T02:06:00;102289.28;;;-1.39;100.00
13420;BME280;6781;58.440;15.470;2022-12-18T02:08:32;102287.56;;;-1.38;100.00
13420;BME280;6781;58.440;15.470;2022-12-18T02:11:02;102279.94;;;-1.34;100.00
13420;BME280;6781;58.440;15.470;2022-12-18T02:13:36;102270.59;;;-1.32;100.00
13420;BME280;6781;58.440;15.470;2022-12-18T02:16:05;102266.34;;;-1.29;100.00
13420;BME280;6781;58.440;15.470;2022-12-18T02:18:37;102251.94;;;-1.27;100.00
13420;BME280;6781;58.440;15.470;2022-12-18T02:21:08;102248.53;;;-1.28;100.00
13420;BME280;6781;58.440;15.470;2022-12-18T02:23:41;102242.59;;;-1.28;100.00
13420;BME280;6781;58.440;15.470;2022-12-18T02:26:15;102249.41;;;-1.31;100.00
13420;BME280;6781;58.440;15.470;2022-12-18T02:28:46;102237.53;;;-1.30;100.00
13420;BME280;6781;58.440;15.470;2022-12-18T02:31:16;102240.06;;;-1.32;100.00
13420;BME280;6781;58.440;15.470;2022-12-18T02:33:49;102240.06;;;-1.28;100.00
13420;BME280;6781;58.440;15.470;2022-12-18T02:36:17;102248.53;;;-1.26;100.00
13420;BME280;6781;58.440;15.470;2022-12-18T02:38:45;102240.91;;;-1.25;100.00
13420;BME280;6781;58.440;15.470;2022-12-18T02:41:12;102227.31;;;-1.25;100.00
13420;BME280;6781;58.440;15.470;2022-12-18T02:43:42;102225.66;;;-1.29;100.00
13420;BME280;6781;58.440;15.470;2022-12-18T02:49:06;102195.16;;;-1.45;100.00
13420;BME280;6781;58.440;15.470;2022-12-18T02:51:37;102194.31;;;-1.45;100.00
13420;BME280;6781;58.440;15.470;2022-12-18T02:54:08;102201.09;;;-1.41;100.00
13420;BME280;6781;58.440;15.470;2022-12-18T02:56:38;102202.78;;;-1.40;100.00
13420;BME280;6781;58.440;15.470;2022-12-18T02:59:11;102205.28;;;-1.33;100.00
13420;BME280;6781;58.440;15.470;2022-12-18T03:01:41;102218.88;;;-1.34;100.00
13420;BME280;6781;58.440;15.470;2022-12-18T03:04:09;102218.03;;;-1.33;100.00
13420;BME280;6781;58.440;15.470;2022-12-18T03:09:13;102199.34;;;-1.28;100.00
13420;BME280;6781;58.440;15.470;2022-12-18T03:11:41;102196.78;;;-1.25;100.00
13420;BME280;6781;58.440;15.470;2022-12-18T03:14:38;102194.28;;;-1.32;100.00
13420;BME280;6781;58.440;15.470;2022-12-18T03:17:07;102179.03;;;-1.38;100.00
13420;BME280;6781;58.440;15.470;2022-12-18T03:19:37;102162.94;;;-1.43;100.00
13420;BME280;6781;58.440;15.470;2022-12-18T03:22:05;102159.56;;;-1.48;100.00
13420;BME280;6781;58.440;15.470;2022-12-18T03:24:33;102154.47;;;-1.51;100.00
13420;BME280;6781;58.440;15.470;2022-12-18T03:27:04;102157.91;;;-1.56;100.00
13420;BME280;6781;58.440;15.470;2022-12-18T03:29:33;102151.09;;;-1.56;100.00
13420;BME280;6781;58.440;15.470;2022-12-18T03:32:04;102138.38;;;-1.54;100.00
13420;BME280;6781;58.440;15.470;2022-12-18T03:34:34;102147.72;;;-1.52;100.00
13420;BME280;6781;58.440;15.470;2022-12-18T03:37:01;102144.31;;;-1.51;100.00
13420;BME280;6781;58.440;15.470;2022-12-18T03:39:28;102154.50;;;-1.54;100.00
13420;BME280;6781;58.440;15.470;2022-12-18T03:41:55;102170.59;;;-1.49;100.00
13420;BME280;6781;58.440;15.470;2022-12-18T03:44:26;102157.84;;;-1.46;100.00
13420;BME280;6781;58.440;15.470;2022-12-18T03:46:55;102164.63;;;-1.42;100.00
13420;BME280;6781;58.440;15.470;2022-12-18T03:49:27;102167.16;;;-1.36;100.00
13420;BME280;6781;58.440;15.470;2022-12-18T03:51:59;102172.19;;;-1.28;100.00
13420;BME280;6781;58.440;15.470;2022-12-18T03:54:27;102179.81;;;-1.23;100.00
13420;BME280;6781;58.440;15.470;2022-12-18T03:56:56;102189.97;;;-1.20;100.00
13420;BME280;6781;58.440;15.470;2022-12-18T03:59:24;102194.22;;;-1.16;100.00
13420;BME280;6781;58.440;15.470;2022-12-18T04:01:51;102190.75;;;-1.06;100.00
13420;BME280;6781;58.440;15.470;2022-12-18T04:04:21;102196.69;;;-1.04;100.00
13420;BME280;6781;58.440;15.470;2022-12-18T04:06:49;102204.31;;;-1.00;100.00
13420;BME280;6781;58.440;15.470;2022-12-18T04:09:17;102200.03;;;-0.96;100.00
13420;BME280;6781;58.440;15.470;2022-12-18T04:11:44;102204.25;;;-0.90;100.00
13420;BME280;6781;58.440;15.470;2022-12-18T04:14:12;102200.03;;;-0.93;100.00
13420;BME280;6781;58.440;15.470;2022-12-18T04:16:38;102204.25;;;-0.87;100.00
13420;BME280;6781;58.440;15.470;2022-12-18T04:19:05;102196.63;;;-0.89;100.00
13420;BME280;6781;58.440;15.470;2022-12-18T04:21:32;102198.28;;;-0.85;100.00
13420;BME280;6781;58.440;15.470;2022-12-18T04:24:00;102191.50;;;-0.83;100.00
13420;BME280;6781;58.440;15.470;2022-12-18T04:26:26;102186.34;;;-0.74;100.00
13420;BME280;6781;58.440;15.470;2022-12-18T04:28:53;102189.72;;;-0.72;100.00
13420;BME280;6781;58.440;15.470;2022-12-18T04:31:20;102200.72;;;-0.67;100.00
13420;BME280;6781;58.440;15.470;2022-12-18T04:33:46;102193.06;;;-0.63;100.00
13420;BME280;6781;58.440;15.470;2022-12-18T04:36:13;102204.09;;;-0.61;100.00
13420;BME280;6781;58.440;15.470;2022-12-18T04:38:40;102204.06;;;-0.57;100.00
13420;BME280;6781;58.440;15.470;2022-12-18T04:41:08;102209.13;;;-0.51;100.00
13420;BME280;6781;58.440;15.470;2022-12-18T04:43:35;102208.25;;;-0.50;100.00
13420;BME280;6781;58.440;15.470;2022-12-18T04:46:02;102209.06;;;-0.45;100.00
13420;BME280;6781;58.440;15.470;2022-12-18T04:48:29;102213.28;;;-0.41;100.00
13420;BME280;6781;58.440;15.470;2022-12-18T04:50:56;102207.34;;;-0.43;100.00
13420;BME280;6781;58.440;15.470;2022-12-18T04:53:22;102205.66;;;-0.42;100.00
13420;BME280;6781;58.440;15.470;2022-12-18T04:55:49;102203.94;;;-0.42;100.00
13420;BME280;6781;58.440;15.470;2022-12-18T04:58:17;102211.56;;;-0.37;100.00
13420;BME280;6781;58.440;15.470;2022-12-18T05:00:44;102214.13;;;-0.40;100.00
13420;BME280;6781;58.440;15.470;2022-12-18T05:03:10;102213.22;;;-0.33;100.00
13420;BME280;6781;58.440;15.470;2022-12-18T05:05:37;102206.44;;;-0.31;100.00
13420;BME280;6781;58.440;15.470;2022-12-18T05:08:03;102214.88;;;-0.26;100.00
13420;BME280;6781;58.440;15.470;2022-12-18T05:10:30;102214.03;;;-0.26;100.00
13420;BME280;6781;58.440;15.470;2022-12-18T05:12:58;102212.31;;;-0.23;100.00
13420;BME280;6781;58.440;15.470;2022-12-18T05:15:27;102225.00;;;-0.17;100.00
13420;BME280;6781;58.440;15.470;2022-12-18T05:17:54;102219.06;;;-0.19;100.00
13420;BME280;6781;58.440;15.470;2022-12-18T05:20:21;102218.22;;;-0.18;100.00
13420;BME280;6781;58.440;15.470;2022-12-18T05:22:47;102218.16;;;-0.12;100.00
13420;BME280;6781;58.440;15.470;2022-12-18T05:25:14;102218.16;;;-0.12;100.00
13420;BME280;6781;58.440;15.470;2022-12-18T05:27:41;102210.50;;;-0.09;100.00
13420;BME280;6781;58.440;15.470;2022-12-18T05:30:08;102221.50;;;-0.04;100.00
13420;BME280;6781;58.440;15.470;2022-12-18T05:32:36;102218.09;;;-0.03;100.00
13420;BME280;6781;58.440;15.470;2022-12-18T05:35:03;102230.84;;;-0.03;100.00
13420;BME280;6781;58.440;15.470;2022-12-18T05:37:30;102229.06;;;0.04;100.00
13420;BME280;6781;58.440;15.470;2022-12-18T05:39:57;102235.84;;;0.05;100.00
13420;BME280;6781;58.440;15.470;2022-12-18T05:42:24;102226.47;;;0.06;100.00
13420;BME280;6781;58.440;15.470;2022-12-18T05:44:50;102235.75;;;0.14;100.00
13420;BME280;6781;58.440;15.470;2022-12-18T05:47:17;102240.84;;;0.14;100.00
13420;BME280;6781;58.440;15.470;2022-12-18T05:49:45;102232.38;;;0.14;100.00
13420;BME280;6781;58.440;15.470;2022-12-18T05:52:11;102229.78;;;0.17;100.00
13420;BME280;6781;58.440;15.470;2022-12-18T05:54:38;102235.69;;;0.22;100.00
13420;BME280;6781;58.440;15.470;2022-12-18T05:57:05;102240.78;;;0.23;100.00
13420;BME280;6781;58.440;15.470;2022-12-18T05:59:32;102236.53;;;0.24;100.00
13420;BME280;6781;58.440;15.470;2022-12-18T06:08:05;102250.06;;;0.29;100.00
13420;BME280;6781;58.440;15.470;2022-12-18T06:10:32;102253.47;;;0.31;100.00
13420;BME280;6781;58.440;15.470;2022-12-18T06:12:59;102250.00;;;0.35;100.00
13420;BME280;6781;58.440;15.470;2022-12-18T06:15:25;102255.16;;;0.32;100.00
13420;BME280;6781;58.440;15.470;2022-12-18T06:17:52;102254.25;;;0.38;100.00
13420;BME280;6781;58.440;15.470;2022-12-18T06:20:19;102247.50;;;0.32;100.00
13420;BME280;6781;58.440;15.470;2022-12-18T06:22:46;102252.53;;;0.40;100.00
13420;BME280;6781;58.440;15.470;2022-12-18T06:25:14;102255.91;;;0.43;100.00
13420;BME280;6781;58.440;15.470;2022-12-18T06:27:41;102253.34;;;0.43;100.00
13420;BME280;6781;58.440;15.470;2022-12-18T06:30:10;102252.47;;;0.44;100.00
13420;BME280;6781;58.440;15.470;2022-12-18T06:32:37;102232.97;;;0.40;100.00
13420;BME280;6781;58.440;15.470;2022-12-18T06:35:04;102238.84;;;0.47;100.00
13420;BME280;6781;58.440;15.470;2022-12-18T06:37:31;102235.47;;;0.45;100.00
13420;BME280;6781;58.440;15.470;2022-12-18T06:39:58;102230.38;;;0.43;100.00
13420;BME280;6781;58.440;15.470;2022-12-18T06:42:28;102238.81;;;0.50;100.00
13420;BME280;6781;58.440;15.470;2022-12-18T06:44:54;102236.31;;;0.45;100.00
13420;BME280;6781;58.440;15.470;2022-12-18T06:47:21;102235.41;;;0.49;100.00
13420;BME280;6781;58.440;15.470;2022-12-18T06:49:48;102231.13;;;0.51;100.00
13420;BME280;6781;58.440;15.470;2022-12-18T06:52:14;102237.09;;;0.50;100.00
13420;BME280;6781;58.440;15.470;2022-12-18T06:54:41;102248.13;;;0.55;100.00
13420;BME280;6781;58.440;15.470;2022-12-18T06:57:08;102245.50;;;0.60;100.00
13420;BME280;6781;58.440;15.470;2022-12-18T06:59:36;102264.19;;;0.63;100.00
13420;BME280;6781;58.440;15.470;2022-12-18T07:02:03;102256.53;;;0.63;100.00
13420;BME280;6781;58.440;15.470;2022-12-18T07:04:29;102257.44;;;0.59;100.00
13420;BME280;6781;58.440;15.470;2022-12-18T07:06:56;102260.81;;;0.60;100.00
13420;BME280;6781;58.440;15.470;2022-12-18T07:09:23;102263.31;;;0.64;100.00
13420;BME280;6781;58.440;15.470;2022-12-18T07:11:49;102262.53;;;0.59;100.00
13420;BME280;6781;58.440;15.470;2022-12-18T07:14:16;102265.06;;;0.62;100.00
13420;BME280;6781;58.440;15.470;2022-12-18T07:16:44;102262.53;;;0.61;100.00
13420;BME280;6781;58.440;15.470;2022-12-18T07:19:11;102277.78;;;0.67;100.00
13420;BME280;6781;58.440;15.470;2022-12-18T07:21:37;102275.25;;;0.62;100.00
13420;BME280;6781;58.440;15.470;2022-12-18T07:24:04;102282.00;;;0.70;100.00
13420;BME280;6781;58.440;15.470;2022-12-18T07:26:31;102276.94;;;0.63;100.00
13420;BME280;6781;58.440;15.470;2022-12-18T07:28:58;102276.91;;;0.67;100.00
13420;BME280;6781;58.440;15.470;2022-12-18T07:31:24;102286.31;;;0.64;100.00
13420;BME280;6781;58.440;15.470;2022-12-18T07:33:53;102295.63;;;0.69;100.00
13420;BME280;6781;58.440;15.470;2022-12-18T07:36:20;102297.31;;;0.70;100.00
13420;BME280;6781;58.440;15.470;2022-12-18T07:38:47;102311.78;;;0.71;100.00
13420;BME280;6781;58.440;15.470;2022-12-18T07:41:14;102313.44;;;0.75;100.00
13420;BME280;6781;58.440;15.470;2022-12-18T07:43:41;102315.19;;;0.70;100.00
13420;BME280;6781;58.440;15.470;2022-12-18T07:46:08;102313.50;;;0.67;100.00
13420;BME280;6781;58.440;15.470;2022-12-18T07:48:35;102318.59;;;0.69;100.00
13420;BME280;6781;58.440;15.470;2022-12-18T07:51:04;102317.69;;;0.76;100.00
13420;BME280;6781;58.440;15.470;2022-12-18T07:53:31;102323.66;;;0.73;100.00
13420;BME280;6781;58.440;15.470;2022-12-18T07:55:58;102327.88;;;0.76;100.00
13420;BME280;6781;58.440;15.470;2022-12-18T07:58:25;102332.16;;;0.74;100.00
13420;BME280;6781;58.440;15.470;2022-12-18T08:00:52;102324.53;;;0.71;100.00
13420;BME280;6781;58.440;15.470;2022-12-18T08:03:19;102333.00;;;0.76;100.00
13420;BME280;6781;58.440;15.470;2022-12-18T08:05:45;102330.50;;;0.68;100.00
13420;BME280;6781;58.440;15.470;2022-12-18T08:08:14;102335.56;;;0.73;100.00
13420;BME280;6781;58.440;15.470;2022-12-18T08:10:40;102336.41;;;0.75;100.00
13420;BME280;6781;58.440;15.470;2022-12-18T08:13:07;102338.06;;;0.79;100.00
13420;BME280;6781;58.440;15.470;2022-12-18T08:15:33;102341.47;;;0.81;100.00
13420;BME280;6781;58.440;15.470;2022-12-18T08:18:01;102350.84;;;0.77;100.00
13420;BME280;6781;58.440;15.470;2022-12-18T08:20:28;102344.88;;;0.80;100.00
13420;BME280;6781;58.440;15.470;2022-12-18T08:22:55;102351.63;;;0.84;100.00
13420;BME280;6781;58.440;15.470;2022-12-18T08:25:24;102352.53;;;0.78;100.00
13420;BME280;6781;58.440;15.470;2022-12-18T08:27:51;102350.78;;;0.83;100.00
13420;BME280;6781;58.440;15.470;2022-12-18T08:30:17;102346.50;;;0.87;100.00
13420;BME280;6781;58.440;15.470;2022-12-18T08:32:44;102343.97;;;0.85;100.00
13420;BME280;6781;58.440;15.470;2022-12-18T08:35:11;102355.78;;;0.95;100.00
13420;BME280;6781;58.440;15.470;2022-12-18T08:37:38;102363.50;;;0.88;100.00
13420;BME280;6781;58.440;15.470;2022-12-18T08:40:10;102369.44;;;0.91;100.00
13420;BME280;6781;58.440;15.470;2022-12-18T08:42:39;102376.16;;;1.00;100.00
13420;BME280;6781;58.440;15.470;2022-12-18T08:45:26;102388.09;;;1.00;100.00
13420;BME280;6781;58.440;15.470;2022-12-18T08:47:55;102388.97;;;0.97;100.00
13420;BME280;6781;58.440;15.470;2022-12-18T08:50:21;102396.63;;;0.95;100.00
13420;BME280;6781;58.440;15.470;2022-12-18T08:52:48;102397.50;;;0.96;100.00
13420;BME280;6781;58.440;15.470;2022-12-18T08:55:15;102394.06;;;0.97;100.00
13420;BME280;6781;58.440;15.470;2022-12-18T08:57:48;102395.75;;;0.98;100.00
13420;BME280;6781;58.440;15.470;2022-12-18T09:00:15;102382.97;;;1.00;100.00
13420;BME280;6781;58.440;15.470;2022-12-18T09:02:42;102383.81;;;1.02;100.00
13420;BME280;6781;58.440;15.470;2022-12-18T09:05:15;102383.78;;;1.03;100.00
13420;BME280;6781;58.440;15.470;2022-12-18T09:07:41;102392.31;;;1.02;100.00
13420;BME280;6781;58.440;15.470;2022-12-18T09:10:08;102392.28;;;1.05;100.00
13420;BME280;6781;58.440;15.470;2022-12-18T09:12:35;102393.19;;;1.01;100.00
13420;BME280;6781;58.440;15.470;2022-12-18T09:15:04;102397.44;;;1.02;100.00
13420;BME280;6781;58.440;15.470;2022-12-18T09:17:31;102390.63;;;1.01;100.00
13420;BME280;6781;58.440;15.470;2022-12-18T09:19:57;102380.41;;;1.01;100.00
13420;BME280;6781;58.440;15.470;2022-12-18T09:22:25;102385.47;;;1.06;100.00
13420;BME280;6781;58.440;15.470;2022-12-18T09:24:52;102391.41;;;1.08;100.00
13420;BME280;6781;58.440;15.470;2022-12-18T09:27:19;102387.16;;;1.08;100.00
13420;BME280;6781;58.440;15.470;2022-12-18T09:29:46;102375.22;;;1.07;100.00
13420;BME280;6781;58.440;15.470;2022-12-18T09:32:15;102382.84;;;1.12;100.00
13420;BME280;6781;58.440;15.470;2022-12-18T09:34:42;102390.53;;;1.10;100.00
13420;BME280;6781;58.440;15.470;2022-12-18T09:37:09;102399.03;;;1.12;100.00
13420;BME280;6781;58.440;15.470;2022-12-18T09:39:35;102392.22;;;1.11;100.00
13420;BME280;6781;58.440;15.470;2022-12-18T09:42:02;102391.31;;;1.17;100.00
13420;BME280;6781;58.440;15.470;2022-12-18T09:44:30;102395.53;;;1.19;100.00
13420;BME280;6781;58.440;15.470;2022-12-18T09:47:09;102396.44;;;1.15;100.00
13420;BME280;6781;58.440;15.470;2022-12-18T09:49:39;102398.19;;;1.12;100.00
13420;BME280;6781;58.440;15.470;2022-12-18T09:52:09;102404.09;;;1.15;100.00
13420;BME280;6781;58.440;15.470;2022-12-18T09:54:38;102397.28;;;1.17;100.00
13420;BME280;6781;58.440;15.470;2022-12-18T09:57:05;102396.41;;;1.18;100.00
13420;BME280;6781;58.440;15.470;2022-12-18T09:59:34;102405.75;;;1.19;100.00
13420;BME280;6781;58.440;15.470;2022-12-18T10:02:10;102395.56;;;1.18;100.00
13420;BME280;6781;58.440;15.470;2022-12-18T10:04:40;102389.59;;;1.17;100.00
13420;BME280;6781;58.440;15.470;2022-12-18T10:07:09;102398.94;;;1.21;100.00
13420;BME280;6781;58.440;15.470;2022-12-18T10:09:41;102386.97;;;1.23;100.00
13420;BME280;6781;58.440;15.470;2022-12-18T10:12:13;102398.00;;;1.28;100.00
13420;BME280;6781;58.440;15.470;2022-12-18T10:14:45;102400.56;;;1.28;100.00
13420;BME280;6781;58.440;15.470;2022-12-18T10:17:20;102417.50;;;1.36;100.00
13420;BME280;6781;58.440;15.470;2022-12-18T10:19:52;102410.69;;;1.38;100.00
13420;BME280;6781;58.440;15.470;2022-12-18T10:22:21;102408.13;;;1.36;100.00
13420;BME280;6781;58.440;15.470;2022-12-18T10:24:54;102407.19;;;1.45;100.00
13420;BME280;6781;58.440;15.470;2022-12-18T10:27:25;102417.31;;;1.54;100.00
13420;BME280;6781;58.440;15.470;2022-12-18T10:29:53;102406.25;;;1.52;100.00
13420;BME280;6781;58.440;15.470;2022-12-18T10:32:22;102402.78;;;1.56;100.00
13420;BME280;6781;58.440;15.470;2022-12-18T10:37:39;102411.38;;;1.52;100.00
13420;BME280;6781;58.440;15.470;2022-12-18T10:40:48;102409.63;;;1.55;100.00
13420;BME280;6781;58.440;15.470;2022-12-18T10:43:27;102396.03;;;1.50;100.00
13420;BME280;6781;58.440;15.470;2022-12-18T10:45:58;102397.59;;;1.62;100.00
13420;BME280;6781;58.440;15.470;2022-12-18T10:48:25;102400.13;;;1.65;100.00
13420;BME280;6781;58.440;15.470;2022-12-18T10:50:56;102391.59;;;1.66;100.00
13420;BME280;6781;58.440;15.470;2022-12-18T10:53:28;102405.28;;;1.62;100.00
13420;BME280;6781;58.440;15.470;2022-12-18T10:55:58;102406.97;;;1.63;100.00
13420;BME280;6781;58.440;15.470;2022-12-18T10:58:39;102391.63;;;1.63;100.00
13420;BME280;6781;58.440;15.470;2022-12-18T11:01:07;102380.66;;;1.55;100.00
13420;BME280;6781;58.440;15.470;2022-12-18T11:03:58;102381.44;;;1.60;100.00
13420;BME280;6781;58.440;15.470;2022-12-18T11:06:25;102377.19;;;1.59;100.00
13420;BME280;6781;58.440;15.470;2022-12-18T11:09:02;102372.06;;;1.60;100.00
13420;BME280;6781;58.440;15.470;2022-12-18T11:11:36;102378.09;;;1.55;100.00
13420;BME280;6781;58.440;15.470;2022-12-18T11:17:27;102374.63;;;1.59;100.00
13420;BME280;6781;58.440;15.470;2022-12-18T11:19:58;102388.25;;;1.61;100.00
13420;BME280;6781;58.440;15.470;2022-12-18T11:22:41;102376.31;;;1.60;100.00
13420;BME280;6781;58.440;15.470;2022-12-18T11:25:17;102378.81;;;1.65;100.00
13420;BME280;6781;58.440;15.470;2022-12-18T11:27:48;102387.25;;;1.71;100.00
13420;BME280;6781;58.440;15.470;2022-12-18T11:30:25;102385.56;;;1.70;100.00
13420;BME280;6781;58.440;15.470;2022-12-18T11:33:20;102390.69;;;1.70;100.00
13420;BME280;6781;58.440;15.470;2022-12-18T11:38:47;102383.06;;;1.67;100.00
13420;BME280;6781;58.440;15.470;2022-12-18T11:41:23;102394.16;;;1.66;100.00
13420;BME280;6781;58.440;15.470;2022-12-18T11:47:12;102384.78;;;1.65;100.00
13420;BME280;6781;58.440;15.470;2022-12-18T11:49:59;102383.06;;;1.67;100.00
13420;BME280;6781;58.440;15.470;2022-12-18T11:52:31;102391.56;;;1.68;100.00
13420;BME280;6781;58.440;15.470;2022-12-18T11:55:00;102394.13;;;1.68;100.00
13420;BME280;6781;58.440;15.470;2022-12-18T11:57:31;102390.75;;;1.66;100.00
13420;BME280;6781;58.440;15.470;2022-12-18T12:00:02;102399.97;;;1.74;100.00
13420;BME280;6781;58.440;15.470;2022-12-18T12:02:36;102389.81;;;1.71;100.00
13420;BME280;6781;58.440;15.470;2022-12-18T12:05:09;102393.25;;;1.70;100.00
13420;BME280;6781;58.440;15.470;2022-12-18T12:07:42;102388.13;;;1.70;100.00
13420;BME280;6781;58.440;15.470;2022-12-18T12:10:36;102379.47;;;1.77;100.00
13420;BME280;6781;58.440;15.470;2022-12-18T12:25:05;102350.47;;;1.78;100.00
13420;BME280;6781;58.440;15.470;2022-12-18T12:27:54;102348.75;;;1.80;100.00
13420;BME280;6781;58.440;15.470;2022-12-18T12:30:28;102350.38;;;1.84;100.00
13420;BME280;6781;58.440;15.470;2022-12-18T12:33:16;102347.00;;;1.82;100.00
13420;BME280;6781;58.440;15.470;2022-12-18T12:35:47;102358.94;;;1.83;100.00
13420;BME280;6781;58.440;15.470;2022-12-18T12:38:33;102355.56;;;1.81;100.00
13420;BME280;6781;58.440;15.470;2022-12-18T12:41:04;102349.59;;;1.81;100.00
13420;BME280;6781;58.440;15.470;2022-12-18T12:43:55;102345.41;;;1.75;100.00
13420;BME280;6781;58.440;15.470;2022-12-18T12:46:27;102347.94;;;1.77;100.00
13420;BME280;6781;58.440;15.470;2022-12-18T12:49:36;102333.47;;;1.74;100.00
13420;BME280;6781;58.440;15.470;2022-12-18T12:52:20;102335.19;;;1.74;100.00
13420;BME280;6781;58.440;15.470;2022-12-18T12:54:55;102347.19;;;1.72;100.00
13420;BME280;6781;58.440;15.470;2022-12-18T13:01:00;102342.94;;;1.71;100.00
13420;BME280;6781;58.440;15.470;2022-12-18T13:03:34;102348.91;;;1.71;100.00
13420;BME280;6781;58.440;15.470;2022-12-18T13:06:18;102359.88;;;1.76;100.00
13420;BME280;6781;58.440;15.470;2022-12-18T13:08:58;102360.81;;;1.72;100.00
13420;BME280;6781;58.440;15.470;2022-12-18T13:14:40;102380.47;;;1.70;100.00
13420;BME280;6781;58.440;15.470;2022-12-18T13:23:33;102406.00;;;1.72;100.00
13420;BME280;6781;58.440;15.470;2022-12-18T13:32:20;102436.75;;;1.67;100.00
13420;BME280;6781;58.440;15.470;2022-12-18T13:37:51;102436.69;;;1.73;100.00
13420;BME280;6781;58.440;15.470;2022-12-18T13:43:19;102460.59;;;1.69;100.00
13420;BME280;6781;58.440;15.470;2022-12-18T13:45:47;102467.47;;;1.64;100.00
13420;BME280;6781;58.440;15.470;2022-12-18T13:48:16;102470.84;;;1.66;100.00
13420;BME280;6781;58.440;15.470;2022-12-18T13:50:47;102483.69;;;1.63;100.00
13420;BME280;6781;58.440;15.470;2022-12-18T13:53:15;102485.38;;;1.62;100.00
13420;BME280;6781;58.440;15.470;2022-12-18T13:55:46;102481.13;;;1.63;100.00
13420;BME280;6781;58.440;15.470;2022-12-18T13:58:13;102497.28;;;1.65;100.00